createdAt,value
2022-11-20T00:01:34.166Z,100414.80
2022-11-20T00:04:02.443Z,100421.00
2022-11-20T00:06:30.875Z,100421.00
2022-11-20T00:09:01.297Z,100416.40
2022-11-20T00:11:31.533Z,100423.20
2022-11-20T00:14:02.368Z,100422.80
2022-11-20T00:16:34.225Z,100421.60
2022-11-20T00:19:02.302Z,100419.40
2022-11-20T00:21:31.253Z,100426.20
2022-11-20T00:23:59.253Z,100421.20
2022-11-20T00:26:32.292Z,100420.00
2022-11-20T00:29:01.977Z,100413.40
2022-11-20T00:31:31.872Z,100418.80
2022-11-20T00:34:02.488Z,100416.40
2022-11-20T00:36:34.712Z,100418.40
2022-11-20T00:39:03.203Z,100418.80
2022-11-20T00:41:31.045Z,100417.40
2022-11-20T00:43:59.092Z,100414.40
2022-11-20T00:46:28.986Z,100407.60
2022-11-20T00:48:56.992Z,100408.80
2022-11-20T00:51:27.461Z,100406.80
2022-11-20T00:54:00.947Z,100408.00
2022-11-20T00:56:29.555Z,100408.00
2022-11-20T00:59:01.837Z,100404.40
2022-11-20T01:01:30.514Z,100403.00
2022-11-20T01:04:00.933Z,100398.00
2022-11-20T01:06:32.489Z,100391.80
2022-11-20T01:09:04.426Z,100393.00
2022-11-20T01:11:36.383Z,100390.00
2022-11-20T01:14:08.868Z,100385.80
2022-11-20T01:16:49.975Z,100389.60
2022-11-20T01:19:23.338Z,100391.60
2022-11-20T01:21:55.117Z,100385.60
2022-11-20T01:24:24.071Z,100383.60
2022-11-20T01:26:52.478Z,100379.20
2022-11-20T01:29:24.516Z,100375.40
2022-11-20T01:31:53.591Z,100371.80
2022-11-20T01:34:23.197Z,100371.40
2022-11-20T01:36:51.429Z,100365.20
2022-11-20T01:39:24.029Z,100362.80
2022-11-20T01:42:12.668Z,100363.00
2022-11-20T01:44:59.610Z,100361.20
2022-11-20T01:47:44.178Z,100362.00
2022-11-20T01:50:23.616Z,100369.60
2022-11-20T01:53:03.197Z,100362.60
2022-11-20T01:55:37.310Z,100363.80
2022-11-20T01:58:05.996Z,100365.40
2022-11-20T02:00:33.966Z,100360.80
2022-11-20T02:06:53.538Z,100365.00
2022-11-20T02:09:24.623Z,100360.00
2022-11-20T02:12:00.404Z,100361.20
2022-11-20T02:14:31.030Z,100363.40
2022-11-20T02:17:02.956Z,100360.00
2022-11-20T02:19:32.946Z,100362.40
2022-11-20T02:25:15.513Z,100368.80
2022-11-20T02:27:46.953Z,100361.40
2022-11-20T02:30:16.682Z,100362.80
2022-11-20T02:32:47.306Z,100361.80
2022-11-20T02:35:23.733Z,100361.40
2022-11-20T02:37:56.547Z,100363.20
2022-11-20T02:40:40.328Z,100367.40
2022-11-20T02:43:09.319Z,100367.80
2022-11-20T02:45:37.710Z,100369.40
2022-11-20T02:48:08.787Z,100371.00
2022-11-20T02:50:41.467Z,100374.80
2022-11-20T02:53:11.005Z,100369.00
2022-11-20T02:55:41.631Z,100370.80
2022-11-20T02:58:18.565Z,100373.00
2022-11-20T03:00:49.370Z,100370.80
2022-11-20T03:03:18.924Z,100366.80
2022-11-20T03:05:50.907Z,100364.60
2022-11-20T03:08:28.695Z,100366.40
2022-11-20T03:11:06.990Z,100366.00
2022-11-20T03:13:38.221Z,100361.20
2022-11-20T03:16:15.520Z,100360.40
2022-11-20T03:18:45.201Z,100359.00
2022-11-20T03:21:16.064Z,100351.60
2022-11-20T03:23:45.836Z,100354.40
2022-11-20T03:26:25.333Z,100351.20
2022-11-20T03:29:01.026Z,100348.40
2022-11-20T03:31:37.804Z,100353.60
2022-11-20T03:34:12.442Z,100350.00
2022-11-20T03:36:44.069Z,100351.20
2022-11-20T03:39:14.416Z,100350.60
2022-11-20T03:41:44.526Z,100345.20
2022-11-20T03:44:14.121Z,100341.00
2022-11-20T03:46:43.699Z,100338.60
2022-11-20T03:49:14.884Z,100340.60
2022-11-20T03:51:54.924Z,100339.20
2022-11-20T03:55:24.313Z,100338.00
2022-11-20T03:58:20.187Z,100342.60
2022-11-20T04:00:50.987Z,100351.60
2022-11-20T04:03:18.921Z,100342.40
2022-11-20T04:05:49.191Z,100347.00
2022-11-20T04:08:17.544Z,100346.00
2022-11-20T04:10:50.549Z,100340.80
2022-11-20T04:13:21.409Z,100337.20
2022-11-20T04:15:51.225Z,100340.80
2022-11-20T04:18:20.727Z,100342.60
2022-11-20T04:20:49.380Z,100337.80
2022-11-20T04:23:19.165Z,100333.80
2022-11-20T04:25:51.362Z,100335.40
2022-11-20T04:28:22.087Z,100329.00
2022-11-20T04:30:54.298Z,100331.60
2022-11-20T04:33:23.078Z,100335.20
2022-11-20T04:35:52.827Z,100329.20
2022-11-20T04:38:24.206Z,100327.00
2022-11-20T04:41:08.053Z,100330.60
2022-11-20T04:43:49.199Z,100319.40
2022-11-20T04:46:22.701Z,100317.60
2022-11-20T04:48:55.351Z,100313.60
2022-11-20T04:51:25.652Z,100316.20
2022-11-20T04:53:55.095Z,100315.60
2022-11-20T04:56:23.504Z,100317.40
2022-11-20T04:58:51.926Z,100317.20
2022-11-20T05:01:24.320Z,100313.60
2022-11-20T05:03:55.870Z,100312.60
2022-11-20T05:06:24.475Z,100307.80
2022-11-20T05:08:52.427Z,100310.60
2022-11-20T05:11:30.327Z,100315.60
2022-11-20T05:14:01.170Z,100318.00
2022-11-20T05:16:33.123Z,100309.20
2022-11-20T05:19:04.543Z,100310.60
2022-11-20T05:21:38.550Z,100310.40
2022-11-20T05:24:09.197Z,100309.20
2022-11-20T05:26:41.987Z,100311.20
2022-11-20T05:29:20.728Z,100312.00
2022-11-20T05:31:48.932Z,100312.00
2022-11-20T05:34:18.467Z,100317.40
2022-11-20T05:36:52.124Z,100309.00
2022-11-20T05:39:24.732Z,100309.20
2022-11-20T05:42:13.625Z,100304.00
2022-11-20T05:44:43.166Z,100304.60
2022-11-20T05:47:14.541Z,100302.60
2022-11-20T05:49:44.254Z,100309.60
2022-11-20T05:52:16.961Z,100303.80
2022-11-20T05:54:47.023Z,100300.00
2022-11-20T05:57:19.641Z,100302.00
2022-11-20T05:59:48.307Z,100300.00
2022-11-20T06:02:19.110Z,100298.80
2022-11-20T06:04:51.189Z,100298.20
2022-11-20T06:07:19.663Z,100301.00
2022-11-20T06:09:50.599Z,100295.20
2022-11-20T06:12:19.544Z,100292.80
2022-11-20T06:14:47.597Z,100286.60
2022-11-20T06:17:17.322Z,100286.60
2022-11-20T06:19:48.079Z,100286.60
2022-11-20T06:22:16.643Z,100292.20
2022-11-20T06:24:47.991Z,100290.80
2022-11-20T06:27:23.735Z,100284.80
2022-11-20T06:29:53.437Z,100286.60
2022-11-20T06:32:24.172Z,100287.40
2022-11-20T06:34:57.086Z,100285.00
2022-11-20T06:37:25.232Z,100282.20
2022-11-20T06:39:53.693Z,100278.00
2022-11-20T06:42:27.789Z,100281.60
2022-11-20T06:44:59.774Z,100288.80
2022-11-20T06:47:28.690Z,100289.40
2022-11-20T06:49:58.070Z,100290.20
2022-11-20T06:52:26.055Z,100289.80
2022-11-20T06:54:55.211Z,100291.80
2022-11-20T06:57:25.104Z,100290.40
2022-11-20T06:59:56.164Z,100291.40
2022-11-20T07:02:27.216Z,100295.60
2022-11-20T07:05:00.808Z,100290.00
2022-11-20T07:07:31.967Z,100286.20
2022-11-20T07:10:06.005Z,100281.80
2022-11-20T07:12:37.133Z,100278.20
2022-11-20T07:15:07.990Z,100274.60
2022-11-20T07:17:35.941Z,100274.00
2022-11-20T07:20:05.520Z,100268.40
2022-11-20T07:22:38.788Z,100272.80
2022-11-20T07:25:09.512Z,100269.20
2022-11-20T07:27:39.897Z,100271.40
2022-11-20T07:30:13.092Z,100269.60
2022-11-20T07:32:42.189Z,100266.00
2022-11-20T07:35:11.313Z,100265.20
2022-11-20T07:37:40.007Z,100271.00
2022-11-20T07:40:09.567Z,100265.60
2022-11-20T07:42:48.564Z,100269.40
2022-11-20T07:45:20.478Z,100276.00
2022-11-20T07:47:51.369Z,100270.20
2022-11-20T07:50:24.213Z,100262.40
2022-11-20T07:52:53.336Z,100259.00
2022-11-20T07:55:22.821Z,100258.80
2022-11-20T07:57:58.329Z,100256.60
2022-11-20T08:00:35.592Z,100258.80
2022-11-20T08:03:06.277Z,100255.00
2022-11-20T08:05:38.310Z,100258.20
2022-11-20T08:08:11.116Z,100255.00
2022-11-20T08:10:40.566Z,100248.40
2022-11-20T08:13:29.702Z,100246.00
2022-11-20T08:16:00.914Z,100249.00
2022-11-20T08:18:32.519Z,100240.60
2022-11-20T08:21:07.578Z,100243.00
2022-11-20T08:23:38.411Z,100247.60
2022-11-20T08:26:09.865Z,100251.20
2022-11-20T08:28:42.021Z,100249.00
2022-11-20T08:31:12.130Z,100247.40
2022-11-20T08:33:41.422Z,100242.40
2022-11-20T08:36:10.071Z,100241.40
2022-11-20T08:38:40.159Z,100236.20
2022-11-20T08:41:28.541Z,100226.40
2022-11-20T08:44:08.015Z,100233.00
2022-11-20T08:46:40.648Z,100229.00
2022-11-20T08:49:13.791Z,100230.00
2022-11-20T08:51:44.877Z,100233.40
2022-11-20T08:54:15.032Z,100231.20
2022-11-20T08:56:46.164Z,100220.80
2022-11-20T08:59:31.240Z,100216.20
2022-11-20T09:02:04.047Z,100210.80
2022-11-20T09:04:34.214Z,100209.60
2022-11-20T09:07:06.506Z,100204.80
2022-11-20T09:09:36.586Z,100203.00
2022-11-20T09:12:08.601Z,100204.00
2022-11-20T09:14:41.065Z,100200.60
2022-11-20T09:17:14.607Z,100198.20
2022-11-20T09:19:43.306Z,100193.00
2022-11-20T09:22:15.213Z,100195.60
2022-11-20T09:24:47.918Z,100194.40
2022-11-20T09:27:21.860Z,100192.80
2022-11-20T09:29:49.828Z,100188.20
2022-11-20T09:32:17.922Z,100184.80
2022-11-20T09:34:48.628Z,100178.60
2022-11-20T09:37:16.706Z,100184.20
2022-11-20T09:39:46.346Z,100180.80
2022-11-20T09:42:41.854Z,100177.60
2022-11-20T09:45:24.319Z,100181.80
2022-11-20T09:48:14.677Z,100179.00
2022-11-20T09:51:29.772Z,100179.80
2022-11-20T09:54:28.914Z,100180.60
2022-11-20T09:57:04.682Z,100185.00
2022-11-20T09:59:55.659Z,100181.40
2022-11-20T10:02:26.013Z,100185.80
2022-11-20T10:05:31.762Z,100186.20
2022-11-20T10:08:44.192Z,100179.40
2022-11-20T10:11:48.590Z,100179.20
2022-11-20T10:14:24.925Z,100176.00
2022-11-20T10:17:36.882Z,100176.20
2022-11-20T10:20:31.367Z,100166.40
2022-11-20T10:23:30.004Z,100159.40
2022-11-20T10:26:47.436Z,100155.00
2022-11-20T10:29:24.218Z,100151.20
2022-11-20T10:32:19.759Z,100147.20
2022-11-20T10:35:26.690Z,100146.80
2022-11-20T10:38:14.593Z,100146.20
2022-11-20T10:40:59.299Z,100142.00
2022-11-20T10:43:35.763Z,100140.20
2022-11-20T10:46:28.095Z,100135.20
2022-11-20T10:49:04.097Z,100136.80
2022-11-20T10:51:48.518Z,100138.20
2022-11-20T10:54:50.734Z,100131.20
2022-11-20T10:57:39.809Z,100131.60
2022-11-20T11:00:15.239Z,100135.80
2022-11-20T11:02:57.129Z,100131.80
2022-11-20T11:06:02.160Z,100127.00
2022-11-20T11:08:38.743Z,100132.20
2022-11-20T11:11:25.945Z,100131.00
2022-11-20T11:14:13.467Z,100127.40
2022-11-20T11:16:59.462Z,100128.40
2022-11-20T11:19:27.472Z,100127.60
2022-11-20T11:22:01.675Z,100129.00
2022-11-20T11:24:42.737Z,100125.00
2022-11-20T11:27:18.771Z,100126.80
2022-11-20T11:29:53.316Z,100126.80
2022-11-20T11:32:28.886Z,100121.00
2022-11-20T11:35:07.294Z,100118.20
2022-11-20T11:37:40.850Z,100126.80
2022-11-20T11:40:23.800Z,100126.60
2022-11-20T11:43:00.943Z,100128.60
2022-11-20T11:45:29.375Z,100123.20
2022-11-20T11:48:06.252Z,100117.20
2022-11-20T11:50:37.814Z,100116.80
2022-11-20T11:53:25.372Z,100112.20
2022-11-20T11:56:14.994Z,100109.00
2022-11-20T11:58:52.900Z,100097.60
2022-11-20T12:02:11.143Z,100096.40
2022-11-20T12:04:50.898Z,100096.20
2022-11-20T12:07:47.256Z,100089.20
2022-11-20T12:10:54.620Z,100088.40
2022-11-20T12:13:35.850Z,100083.00
2022-11-20T12:16:05.685Z,100086.20
2022-11-20T12:18:35.368Z,100086.60
2022-11-20T12:21:35.675Z,100080.80
2022-11-20T12:24:33.003Z,100074.20
2022-11-20T12:27:20.946Z,100066.80
2022-11-20T12:30:12.642Z,100064.80
2022-11-20T12:32:55.781Z,100072.20
2022-11-20T12:36:11.058Z,100060.00
2022-11-20T12:39:01.413Z,100057.40
2022-11-20T12:42:58.389Z,100051.80
2022-11-20T12:45:52.651Z,100052.60
2022-11-20T12:48:56.878Z,100051.80
2022-11-20T12:51:58.186Z,100054.00
2022-11-20T12:54:57.553Z,100052.40
2022-11-20T12:57:46.270Z,100043.80
2022-11-20T13:00:26.131Z,100039.80
2022-11-20T13:03:24.101Z,100038.80
2022-11-20T13:06:06.328Z,100036.40
2022-11-20T13:08:43.163Z,100031.80
2022-11-20T13:11:55.119Z,100031.40
2022-11-20T13:15:04.478Z,100026.60
2022-11-20T13:18:05.134Z,100023.80
2022-11-20T13:20:35.698Z,100021.80
2022-11-20T13:23:03.968Z,100017.60
2022-11-20T13:25:39.017Z,100017.40
2022-11-20T13:28:09.882Z,100013.40
2022-11-20T13:30:51.639Z,100009.40
2022-11-20T13:33:32.705Z,100005.00
2022-11-20T13:36:27.713Z,100010.80
2022-11-20T13:39:01.167Z,100008.20
2022-11-20T13:41:36.620Z,100007.00
2022-11-20T13:44:54.525Z,100005.40
2022-11-20T13:47:27.976Z,100007.40
2022-11-20T13:50:00.535Z,100004.80
2022-11-20T13:53:08.119Z,100003.40
2022-11-20T13:56:12.657Z,100004.20
2022-11-20T13:59:22.017Z,100002.00
2022-11-20T14:01:50.434Z,99991.60
2022-11-20T14:04:43.892Z,99988.20
2022-11-20T14:07:13.344Z,99987.00
2022-11-20T14:09:57.539Z,99988.80
2022-11-20T14:12:35.451Z,99983.60
2022-11-20T14:15:05.376Z,99985.80
2022-11-20T14:17:38.263Z,99985.20
2022-11-20T14:20:17.877Z,99987.00
2022-11-20T14:22:55.616Z,99986.60
2022-11-20T14:25:33.632Z,99985.40
2022-11-20T14:28:04.776Z,99984.00
2022-11-20T14:30:49.653Z,99985.20
2022-11-20T14:33:23.430Z,99982.40
2022-11-20T14:35:57.369Z,99982.40
2022-11-20T14:38:32.397Z,99985.40
2022-11-20T14:41:18.871Z,99979.40
2022-11-20T14:44:12.353Z,99979.00
2022-11-20T14:46:46.342Z,99975.40
2022-11-20T14:49:18.868Z,99971.20
2022-11-20T14:51:59.150Z,99973.60
2022-11-20T14:54:36.477Z,99971.60
2022-11-20T14:57:07.219Z,99971.40
2022-11-20T14:59:43.993Z,99969.80
2022-11-20T15:02:25.464Z,99964.20
2022-11-20T15:05:04.330Z,99966.20
2022-11-20T15:07:42.980Z,99963.60
2022-11-20T15:10:26.032Z,99959.60
2022-11-20T15:13:06.080Z,99956.00
2022-11-20T15:15:52.732Z,99961.60
2022-11-20T15:18:26.485Z,99958.60
2022-11-20T15:20:56.937Z,99956.40
2022-11-20T15:23:30.166Z,99953.20
2022-11-20T15:26:00.641Z,99957.20
2022-11-20T15:28:45.640Z,99956.60
2022-11-20T15:31:17.459Z,99964.20
2022-11-20T15:33:45.888Z,99966.20
2022-11-20T15:36:16.272Z,99968.00
2022-11-20T15:38:49.456Z,99965.80
2022-11-20T15:41:20.729Z,99969.80
2022-11-20T15:43:51.337Z,99965.80
2022-11-20T15:46:42.630Z,99963.20
2022-11-20T15:49:53.077Z,99965.60
2022-11-20T15:52:41.760Z,99961.00
2022-11-20T16:00:44.858Z,99952.80
2022-11-20T16:03:58.732Z,99955.00
2022-11-20T16:14:59.473Z,99954.60
2022-11-20T16:15:21.873Z,99953.80
2022-11-20T16:17:43.862Z,99949.20
2022-11-20T16:20:14.839Z,99945.40
2022-11-20T16:23:05.369Z,99946.80
2022-11-20T16:25:35.915Z,99951.20
2022-11-20T16:28:06.047Z,99955.80
2022-11-20T16:30:35.958Z,99961.00
2022-11-20T16:33:06.586Z,99954.40
2022-11-20T16:35:35.341Z,99955.00
2022-11-20T16:38:04.705Z,99956.20
2022-11-20T16:40:34.918Z,99956.20
2022-11-20T16:43:11.122Z,99951.20
2022-11-20T16:45:45.833Z,99952.60
2022-11-20T16:48:17.186Z,99949.80
2022-11-20T16:50:57.078Z,99954.00
2022-11-20T16:53:34.078Z,99949.00
2022-11-20T16:56:18.557Z,99944.40
2022-11-20T16:58:53.211Z,99946.20
2022-11-20T17:01:26.459Z,99946.00
2022-11-20T17:04:08.331Z,99948.00
2022-11-20T17:06:44.337Z,99936.00
2022-11-20T17:09:13.979Z,99938.40
2022-11-20T17:11:44.911Z,99940.00
2022-11-20T17:14:22.019Z,99947.40
2022-11-20T17:17:08.802Z,99944.00
2022-11-20T17:19:39.574Z,99943.00
2022-11-20T17:22:09.961Z,99936.00
2022-11-20T17:24:41.048Z,99934.60
2022-11-20T17:27:16.622Z,99931.60
2022-11-20T17:29:45.646Z,99937.60
2022-11-20T17:32:13.857Z,99929.00
2022-11-20T17:34:43.372Z,99933.00
2022-11-20T17:37:12.666Z,99932.80
2022-11-20T17:39:47.570Z,99926.20
2022-11-20T17:42:31.104Z,99927.80
2022-11-20T17:45:00.811Z,99926.60
2022-11-20T17:47:31.906Z,99917.60
2022-11-20T17:50:00.357Z,99908.60
2022-11-20T17:52:31.071Z,99905.40
2022-11-20T17:55:08.550Z,99903.80
2022-11-20T17:57:52.724Z,99902.60
2022-11-20T18:00:21.092Z,99891.80
2022-11-20T18:02:54.828Z,99885.20
2022-11-20T18:05:40.445Z,99880.20
2022-11-20T18:08:16.347Z,99882.80
2022-11-20T18:10:52.883Z,99881.40
2022-11-20T18:13:47.580Z,99880.60
2022-11-20T18:16:16.005Z,99875.80
2022-11-20T18:18:44.583Z,99876.00
2022-11-20T18:21:15.980Z,99870.00
2022-11-20T18:23:49.484Z,99870.20
2022-11-20T18:26:21.670Z,99865.20
2022-11-20T18:28:51.926Z,99864.60
2022-11-20T18:31:23.268Z,99860.00
2022-11-20T18:33:53.968Z,99856.80
2022-11-20T18:36:33.788Z,99858.00
2022-11-20T18:39:04.739Z,99860.00
2022-11-20T18:41:53.124Z,99861.00
2022-11-20T18:44:49.544Z,99861.80
2022-11-20T18:47:31.013Z,99858.00
2022-11-20T18:50:07.505Z,99870.00
2022-11-20T18:52:44.732Z,99869.00
2022-11-20T18:55:17.227Z,99862.60
2022-11-20T18:57:47.968Z,99862.60
2022-11-20T19:00:18.081Z,99864.00
2022-11-20T19:03:21.220Z,99863.80
2022-11-20T19:05:50.986Z,99859.40
2022-11-20T19:08:21.696Z,99863.80
2022-11-20T19:11:07.403Z,99856.80
2022-11-20T19:15:36.973Z,99855.60
2022-11-20T19:17:17.014Z,99851.40
2022-11-20T19:19:49.803Z,99843.40
2022-11-20T19:22:24.249Z,99845.20
2022-11-20T19:24:56.016Z,99841.60
2022-11-20T19:27:25.329Z,99836.20
2022-11-20T19:29:53.723Z,99832.20
2022-11-20T19:32:30.602Z,99830.80
2022-11-20T19:34:58.677Z,99829.40
2022-11-20T19:37:26.837Z,99825.80
2022-11-20T19:39:59.354Z,99829.00
2022-11-20T19:42:28.907Z,99816.20
2022-11-20T19:44:58.411Z,99819.00
2022-11-20T19:47:52.604Z,99810.40
2022-11-20T19:50:22.197Z,99805.20
2022-11-20T19:52:58.376Z,99797.20
2022-11-20T19:55:33.163Z,99806.40
2022-11-20T19:58:03.759Z,99809.80
2022-11-20T20:00:33.085Z,99800.80
2022-11-20T20:03:03.377Z,99803.20
2022-11-20T20:05:38.373Z,99803.20
2022-11-20T20:08:07.555Z,99805.20
2022-11-20T20:10:35.963Z,99806.20
2022-11-20T20:13:04.899Z,99802.20
2022-11-20T20:15:44.849Z,99805.20
2022-11-20T20:18:16.958Z,99795.40
2022-11-20T20:20:47.528Z,99796.60
2022-11-20T20:23:23.334Z,99800.60
2022-11-20T20:25:54.365Z,99796.00
2022-11-20T20:28:25.240Z,99802.60
2022-11-20T20:30:58.408Z,99798.20
2022-11-20T20:33:31.392Z,99797.80
2022-11-20T20:36:01.925Z,99799.00
2022-11-20T20:38:31.443Z,99804.80
2022-11-20T20:41:00.831Z,99803.60
2022-11-20T20:43:31.664Z,99802.20
2022-11-20T20:46:01.380Z,99798.80
2022-11-20T20:48:30.101Z,99795.40
2022-11-20T20:51:03.167Z,99797.80
2022-11-20T20:53:38.418Z,99795.60
2022-11-20T20:56:14.760Z,99798.20
2022-11-20T20:58:52.730Z,99788.80
2022-11-20T21:01:27.038Z,99793.80
2022-11-20T21:03:56.627Z,99791.00
2022-11-20T21:06:26.247Z,99792.40
2022-11-20T21:09:08.108Z,99789.80
2022-11-20T21:11:50.711Z,99792.00
2022-11-20T21:14:19.204Z,99787.00
2022-11-20T21:16:52.811Z,99787.80
2022-11-20T21:19:30.188Z,99782.60
2022-11-20T21:22:00.366Z,99783.60
2022-11-20T21:24:31.845Z,99787.00
2022-11-20T21:27:13.785Z,99786.60
2022-11-20T21:29:51.584Z,99785.60
2022-11-20T21:32:19.748Z,99783.60
2022-11-20T21:34:53.253Z,99781.80
2022-11-20T21:37:26.619Z,99785.00
2022-11-20T21:39:57.936Z,99785.60
2022-11-20T21:42:28.297Z,99787.60
2022-11-20T21:45:00.281Z,99790.20
2022-11-20T21:47:31.248Z,99785.40
2022-11-20T21:50:08.367Z,99788.80
2022-11-20T21:52:40.605Z,99784.60
2022-11-20T21:55:12.694Z,99786.00
2022-11-20T21:57:44.065Z,99791.00
2022-11-20T22:00:13.485Z,99785.20
2022-11-20T22:02:49.335Z,99781.80
2022-11-20T22:05:21.506Z,99784.20
2022-11-20T22:07:52.543Z,99787.20
2022-11-20T22:10:24.431Z,99780.40
2022-11-20T22:13:14.106Z,99785.40
2022-11-20T22:15:59.810Z,99791.80
2022-11-20T22:18:29.581Z,99791.40
2022-11-20T22:21:08.429Z,99792.60
2022-11-20T22:23:41.917Z,99789.60
2022-11-20T22:26:22.716Z,99792.60
2022-11-20T22:28:53.900Z,99787.40
2022-11-20T22:31:29.506Z,99782.80
2022-11-20T22:34:06.377Z,99779.20
2022-11-20T22:36:39.367Z,99779.40
2022-11-20T22:39:12.953Z,99771.80
2022-11-20T22:41:41.139Z,99774.20
2022-11-20T22:44:14.788Z,99772.40
2022-11-20T22:46:48.126Z,99771.20
2022-11-20T22:49:22.129Z,99776.20
2022-11-20T22:51:51.503Z,99769.40
2022-11-20T22:54:30.635Z,99773.20
2022-11-20T22:57:08.908Z,99769.80
2022-11-20T22:59:39.872Z,99765.20
2022-11-20T23:02:11.131Z,99770.20
2022-11-20T23:04:43.113Z,99773.40
2022-11-20T23:07:11.636Z,99781.20
2022-11-20T23:09:45.001Z,99788.20
2022-11-20T23:12:16.057Z,99786.80
2022-11-20T23:14:46.798Z,99788.60
2022-11-20T23:17:15.482Z,99783.00
2022-11-20T23:19:44.516Z,99782.40
2022-11-20T23:22:13.131Z,99779.60
2022-11-20T23:24:46.618Z,99785.80
2022-11-20T23:27:17.916Z,99785.80
2022-11-20T23:29:56.680Z,99791.80
2022-11-20T23:32:27.626Z,99793.60
2022-11-20T23:35:00.097Z,99794.20
2022-11-20T23:37:29.668Z,99795.00
2022-11-20T23:40:02.477Z,99793.40
2022-11-20T23:42:36.146Z,99793.80
2022-11-20T23:45:06.889Z,99789.20
2022-11-20T23:47:35.179Z,99789.40
2022-11-20T23:50:03.372Z,99789.40
2022-11-20T23:52:37.048Z,99787.80
2022-11-20T23:55:06.341Z,99784.60
2022-11-20T23:57:36.221Z,99784.40
